SBOSBO RKE / EKRK
Speedbird OnlineSpeedbird Online RKE / EKRK

Copenhagen Roskilde Airport
09:18 15.8°C

Location Copenhagen, Denmark
Latitude: 55.585601806640625
Longitude: 12.131400108337402
Web Wikipedia
Altitude 45 Meter / 146 Feet
Distance 912 KM / 567 Miles
from London.
Time Zone UTC +2 hours (Europe/Copenhagen)
Codes IATA: RKE
ICAO: EKRK
Currency £1 equals DKK 8.61
Runways
RunwayLength (m)Surface
031500Asphalt
111740Asphalt
211500Asphalt
291740Asphalt
Radio
TypeDescriptionFrequency
APPAPP125.525
ATISATIS123.8
MISCHANDLING130.225
TWRTWR118.9
TWR119.65
Live ATC
METAR EKRK 290650Z AUTO 18005KT 9999 BKN110/// 16/14 Q1014
TAF TAF EKRK 290502Z 2906/2915 18005KT 9999 SCT030 TEMPO 2909/2912 SCT030CB TEMPO 2912/2915 4000 SHRA SCT030CB
Weather As Of 29 Sep 2023 09:18
Description Broken clouds
Wind 9 km/h from South (180°)
Cloud Cover 75%
Precipitation Rain: none, Snow: none
Sunrise 07:09
Sunset 18:54
Rotations During the last 90 days there were
1 flights from



Support Speedbird Online

© 2017-2023 Speedbird Online